Aviation Digital Data Service (ADDS)

Output produced by METARs form (1453 UTC 22 April 2019)
found at http://www.aviationweather.gov/metar/data/
 
Forecast for: UTSB (BUKHARA , UZ)
Text: TAF UTSB 221100Z 2212/2312 VRB05KT 7000 SCT050CB BKN100
Forecast period: 1200 UTC 22 April 2019 to 1200 UTC 23 April 2019
Forecast type: FROM: standard forecast or significant change
Winds: variable direction winds at 6 MPH (5 knots; 2.6 m/s)
Visibility: 4 miles (7 km)
Ceiling: 10000 feet AGL
Clouds: scattered clouds at 5000 feet AGL
broken clouds at 10000 feet AGL
Weather: no significant weather forecast for this period
Text: TEMPO 2212/2223 04014G24KT 3000 -TSRA BR BKN025CB OVC100
Forecast period: 1200 to 2300 UTC 22 April 2019
Forecast type: TEMPORARY: The following changes expected for less than half the time period
Winds: from the NE (40 degrees) at 16 MPH (14 knots; 7.2 m/s)
gusting to 28 MPH (24 knots; 12.3 m/s)
Visibility: 1.86 miles (2.99 km)
Ceiling: 2500 feet AGL
Clouds: broken clouds at 2500 feet AGL
overcast cloud deck at 10000 feet AGL
Weather: -TSRA BR  (light rain associated with thunderstorm(s), mist)